CST,Max TemperatureF,Mean TemperatureF,Min TemperatureF,Max Dew PointF,MeanDew PointF,Min DewpointF,Max Humidity, Mean Humidity, Min Humidity, Max Sea Level PressureIn, Mean Sea Level PressureIn, Min Sea Level PressureIn, Max VisibilityMiles, Mean VisibilityMiles, Min VisibilityMiles, Max Wind SpeedMPH, Mean Wind SpeedMPH, Max Gust SpeedMPH,PrecipitationIn, CloudCover, Events, WindDirDegrees
2012-12-1,40,36,32,38,35,31,96,94,90,30.05,29.83,29.71,10,6,1,16,8,22,0.00,7,,153
2012-12-2,37,36,34,36,34,32,96,91,87,29.99,29.90,29.80,10,9,5,13,3,17,0.00,8,,149
2012-12-3,51,44,38,50,41,28,96,84,58,29.85,29.67,29.51,10,9,3,17,11,24,0.00,6,,207
2012-12-4,41,28,16,28,15,10,77,64,47,30.41,30.15,29.85,10,10,10,16,10,24,0.00,0,,301
2012-12-5,37,24,11,22,14,8,87,64,46,30.41,30.18,29.85,10,10,10,21,6,31,0.00,3,,137
2012-12-6,41,30,20,34,27,18,89,72,54,29.98,29.84,29.73,10,10,10,18,12,29,0.00,3,Rain,242
2012-12-7,29,22,16,23,20,15,95,83,73,30.05,30.03,29.98,10,10,10,6,2,,0.00,5,,290
2012-12-8,33,26,18,23,20,15,85,78,65,30.06,30.04,30.01,10,10,10,7,3,,0.00,5,,67
2012-12-9,29,23,17,28,25,12,95,91,80,30.05,29.95,29.87,10,6,2,18,7,25,0.00,8,Rain,50
2012-12-10,16,8,0,12,4,-3,88,81,67,29.94,29.90,29.83,10,10,7,12,6,18,0.00,4,,290
2012-12-11,14,3,-8,10,1,-13,90,85,75,30.00,29.86,29.78,10,9,2,9,4,,0.00,6,Snow,211
2012-12-12,35,14,-7,28,15,-12,94,82,67,30.01,29.90,29.83,10,10,10,13,3,16,0.00,4,,148
2012-12-13,31,21,11,24,20,9,96,88,70,30.14,30.00,29.89,10,10,7,9,2,,0.00,1,,3
2012-12-14,35,20,6,27,17,4,95,85,67,30.14,30.02,29.83,10,10,7,9,2,,0.01,1,,73
2012-12-15,36,34,32,35,32,28,99,92,80,29.81,29.61,29.52,10,7,2,8,5,,0.67,8,Rain,81
2012-12-16,33,26,20,32,24,17,99,91,86,29.79,29.68,29.53,10,10,10,12,7,20,0.04,8,Rain,307
2012-12-17,21,20,19,19,18,17,95,91,88,29.79,29.75,29.70,10,10,10,6,2,,0.00,8,,338
2012-12-18,27,23,19,21,20,18,95,88,75,29.81,29.71,29.67,10,10,10,5,1,,0.00,7,,56
2012-12-19,30,26,22,27,24,19,94,89,80,30.02,29.93,29.82,10,10,7,8,4,,0.00,7,,192
2012-12-20,25,17,9,20,16,5,88,82,75,30.04,29.93,29.85,10,10,10,18,9,28,0.00,7,,340
2012-12-21,19,11,3,8,4,0,90,77,60,30.25,30.18,30.05,10,10,10,10,6,18,0.00,1,,308
2012-12-22,22,12,1,15,7,-2,89,80,61,30.19,30.04,29.96,10,10,10,15,1,21,0.00,1,,324
2012-12-23,18,12,7,9,6,3,87,77,63,30.15,30.09,30.03,10,10,10,12,6,17,0.00,3,,1
2012-12-24,14,8,1,8,3,-3,81,71,55,30.28,30.11,30.02,10,10,10,10,5,17,0.00,4,,341
2012-12-25,9,2,-4,0,-5,-9,85,77,63,30.47,30.41,30.28,10,10,10,7,4,,0.00,3,,305
2012-12-26,13,4,-4,4,-1,-8,88,79,65,30.40,30.31,30.25,10,10,10,5,1,,0.00,4,,356
2012-12-27,19,9,-1,17,8,-5,92,83,71,30.26,30.21,30.15,10,10,7,5,0,,0.00,6,,47
2012-12-28,22,14,6,17,14,4,93,89,82,30.15,30.07,30.01,10,10,2,5,1,,0.00,8,Rain-Snow,30
2012-12-29,18,10,1,16,10,-2,93,85,75,30.14,30.05,30.00,10,10,5,9,4,,0.00,7,Snow,252
2012-12-30,16,7,-2,11,3,-6,90,83,73,30.17,30.03,29.86,10,10,10,8,2,,0.00,1,,175
2012-12-31,16,5,-6,11,-1,-11,89,72,53,30.24,30.14,29.94,10,10,10,12,6,17,0.00,2,,305